createdAt,value
2023-04-19T00:03:26.685Z,6.43
2023-04-19T00:07:43.640Z,8.70
2023-04-19T00:12:00.003Z,5.65
2023-04-19T00:16:16.669Z,7.90
2023-04-19T00:20:33.467Z,6.55
2023-04-19T00:24:49.810Z,7.50
2023-04-19T00:29:06.096Z,9.35
2023-04-19T00:33:22.381Z,6.03
2023-04-19T00:37:38.665Z,7.90
2023-04-19T00:41:55.671Z,10.23
2023-04-19T00:46:12.112Z,10.35
2023-04-19T00:50:28.920Z,6.35
2023-04-19T00:54:45.586Z,8.10
2023-04-19T00:59:02.343Z,4.95
2023-04-19T01:03:18.763Z,5.87
2023-04-19T01:07:35.661Z,8.18
2023-04-19T01:11:52.224Z,7.40
2023-04-19T01:16:08.792Z,8.48
2023-04-19T01:20:25.207Z,7.75
2023-04-19T01:24:41.418Z,7.45
2023-04-19T01:28:57.669Z,5.03
2023-04-19T01:33:13.823Z,7.80
2023-04-19T01:37:30.083Z,6.95
2023-04-19T01:41:46.518Z,7.68
2023-04-19T01:46:02.862Z,6.97
2023-04-19T01:50:19.217Z,6.75
2023-04-19T01:54:35.603Z,9.23
2023-04-19T01:58:51.946Z,6.50
2023-04-19T02:03:08.365Z,8.55
2023-04-19T02:07:24.714Z,7.68
2023-04-19T02:11:41.135Z,8.23
2023-04-19T02:15:57.351Z,7.05
2023-04-19T02:20:13.816Z,8.07
2023-04-19T02:24:30.122Z,7.03
2023-04-19T02:28:46.327Z,6.97
2023-04-19T02:33:02.681Z,7.05
2023-04-19T02:37:19.270Z,8.52
2023-04-19T02:41:35.563Z,8.65
2023-04-19T02:45:52.218Z,7.97
2023-04-19T02:50:09.088Z,8.40
2023-04-19T02:54:25.299Z,10.35
2023-04-19T02:58:41.535Z,8.13
2023-04-19T03:02:58.205Z,11.88
2023-04-19T03:07:14.730Z,9.77
2023-04-19T03:11:31.028Z,9.80
2023-04-19T03:15:48.534Z,11.60
2023-04-19T03:20:10.007Z,10.27
2023-04-19T03:24:30.384Z,9.38
2023-04-19T03:28:46.761Z,9.05
2023-04-19T03:33:03.020Z,10.27
2023-04-19T03:37:19.303Z,11.52
2023-04-19T03:41:35.590Z,10.27
2023-04-19T03:45:52.060Z,8.98
2023-04-19T03:50:08.950Z,10.10
2023-04-19T03:54:25.148Z,11.18
2023-04-19T03:58:42.695Z,10.75
2023-04-19T04:02:59.409Z,11.15
2023-04-19T04:07:16.178Z,12.10
2023-04-19T04:11:32.487Z,12.23
2023-04-19T04:15:48.912Z,9.98
2023-04-19T04:20:05.984Z,12.00
2023-04-19T04:24:22.595Z,10.50
2023-04-19T04:28:38.903Z,9.88
2023-04-19T04:32:58.336Z,11.12
2023-04-19T04:37:14.730Z,13.18
2023-04-19T04:41:33.647Z,13.05
2023-04-19T04:45:50.302Z,15.02
2023-04-19T04:50:07.695Z,16.85
2023-04-19T04:54:23.935Z,15.98
2023-04-19T04:58:40.121Z,18.02
2023-04-19T05:02:56.389Z,15.52
2023-04-19T05:07:12.901Z,13.80
2023-04-19T05:11:29.142Z,15.82
2023-04-19T05:15:45.437Z,12.65
2023-04-19T05:20:01.949Z,13.15
2023-04-19T05:24:19.310Z,14.18
2023-04-19T05:28:35.585Z,14.60
2023-04-19T05:32:52.921Z,15.43
2023-04-19T05:37:09.161Z,12.45
2023-04-19T05:41:25.987Z,13.35
2023-04-19T05:45:42.234Z,13.32
2023-04-19T05:49:58.471Z,12.20
2023-04-19T05:54:15.123Z,11.77
2023-04-19T05:58:31.588Z,15.20
2023-04-19T06:02:48.025Z,12.93
2023-04-19T06:07:06.179Z,10.85
2023-04-19T06:11:29.188Z,19.65
2023-04-19T06:15:55.492Z,14.55
2023-04-19T06:20:12.539Z,14.27
2023-04-19T06:24:28.799Z,12.80
2023-04-19T06:28:44.947Z,15.40
2023-04-19T06:33:01.229Z,13.82
2023-04-19T06:37:17.487Z,11.18
2023-04-19T06:41:33.730Z,12.52
2023-04-19T06:45:49.993Z,14.27
2023-04-19T06:50:06.931Z,12.82
2023-04-19T06:54:23.287Z,12.07
2023-04-19T06:58:39.428Z,12.65
2023-04-19T07:02:55.911Z,11.05
2023-04-19T07:07:12.204Z,13.52
2023-04-19T07:11:28.550Z,13.32
2023-04-19T07:15:44.795Z,10.15
2023-04-19T07:20:01.009Z,13.75
2023-04-19T07:24:17.833Z,13.25
2023-04-19T07:28:34.280Z,9.25
2023-04-19T07:32:52.867Z,9.27
2023-04-19T07:37:10.619Z,12.43
2023-04-19T07:41:26.801Z,9.27
2023-04-19T07:45:43.149Z,13.98
2023-04-19T07:49:59.483Z,11.68
2023-04-19T07:54:21.085Z,13.88
2023-04-19T07:58:38.454Z,11.82
2023-04-19T08:02:54.918Z,13.85
2023-04-19T08:07:12.103Z,10.88
2023-04-19T08:11:28.483Z,11.38
2023-04-19T08:20:06.968Z,12.18
2023-04-19T08:24:23.425Z,15.55
2023-04-19T08:28:39.743Z,13.10
2023-04-19T08:32:57.261Z,12.60
2023-04-19T08:37:13.788Z,13.62
2023-04-19T08:41:30.910Z,11.00
2023-04-19T08:45:51.226Z,12.30
2023-04-19T08:50:24.190Z,10.95
2023-04-19T08:54:46.380Z,11.57
2023-04-19T08:59:15.595Z,11.80
2023-04-19T09:03:44.314Z,11.25
2023-04-19T09:08:25.462Z,10.85
2023-04-19T09:12:42.347Z,10.95
2023-04-19T09:17:17.641Z,15.95
2023-04-19T09:21:34.402Z,13.18
2023-04-19T09:30:31.177Z,14.98
2023-04-19T09:35:00.571Z,15.00
2023-04-19T09:39:33.204Z,12.52
2023-04-19T09:48:09.149Z,14.63
2023-04-19T09:52:26.506Z,13.27
2023-04-19T09:56:43.033Z,14.77
2023-04-19T10:01:10.650Z,12.55
2023-04-19T10:05:32.254Z,13.85
2023-04-19T10:09:54.140Z,12.00
2023-04-19T10:14:12.182Z,16.40
2023-04-19T10:18:28.577Z,12.90
2023-04-19T10:22:44.735Z,13.02
2023-04-19T10:27:13.974Z,11.25
2023-04-19T10:31:30.477Z,12.00
2023-04-19T10:35:46.863Z,12.77
2023-04-19T10:40:04.687Z,12.88
2023-04-19T10:44:20.947Z,9.50
2023-04-19T10:48:55.680Z,11.63
2023-04-19T10:53:46.091Z,10.95
2023-04-19T10:58:07.020Z,11.35
2023-04-19T11:02:23.461Z,10.38
2023-04-19T11:07:04.149Z,12.10
2023-04-19T11:11:21.881Z,11.32
2023-04-19T11:15:43.964Z,14.87
2023-04-19T11:20:09.610Z,11.75
2023-04-19T11:24:26.047Z,9.73
2023-04-19T11:28:44.859Z,9.88
2023-04-19T11:33:01.301Z,9.57
2023-04-19T11:37:17.542Z,11.60
2023-04-19T11:41:39.804Z,13.75
2023-04-19T11:45:56.117Z,10.33
2023-04-19T11:50:31.226Z,13.30
2023-04-19T11:54:48.227Z,10.90
2023-04-19T11:59:04.583Z,11.63
2023-04-19T12:03:26.532Z,10.98
2023-04-19T12:08:06.985Z,9.50
2023-04-19T12:12:35.153Z,11.48
2023-04-19T12:17:07.879Z,11.25
2023-04-19T12:21:28.939Z,12.88
2023-04-19T12:25:47.189Z,12.73
2023-04-19T12:30:04.505Z,9.30
2023-04-19T12:34:21.107Z,10.25
2023-04-19T12:38:37.865Z,11.12
2023-04-19T12:42:54.405Z,9.48
2023-04-19T12:47:10.592Z,10.02
2023-04-19T12:51:28.178Z,10.02
2023-04-19T12:55:49.215Z,9.57
2023-04-19T13:00:07.499Z,12.35
2023-04-19T13:04:24.215Z,9.77
2023-04-19T13:08:46.196Z,14.40
2023-04-19T13:13:03.984Z,21.27
2023-04-19T13:17:21.084Z,18.48
2023-04-19T13:21:37.303Z,17.05
2023-04-19T13:25:53.629Z,18.60
2023-04-19T13:30:10.406Z,14.85
2023-04-19T13:34:26.910Z,13.35
2023-04-19T13:38:43.160Z,14.77
2023-04-19T13:42:59.713Z,12.80
2023-04-19T13:47:15.970Z,14.63
2023-04-19T13:51:46.527Z,13.35
2023-04-19T13:56:09.516Z,10.65
2023-04-19T14:00:25.950Z,9.55
2023-04-19T14:04:42.240Z,10.10
2023-04-19T14:08:58.606Z,10.60
2023-04-19T14:13:14.831Z,10.68
2023-04-19T14:17:31.103Z,10.48
2023-04-19T14:21:47.326Z,8.02
2023-04-19T14:26:03.580Z,9.10
2023-04-19T14:30:22.050Z,10.65
2023-04-19T14:34:38.562Z,8.77
2023-04-19T14:38:54.807Z,11.35
2023-04-19T14:43:15.241Z,8.07
2023-04-19T14:47:31.551Z,7.93
2023-04-19T14:51:47.818Z,9.50
2023-04-19T14:56:06.060Z,8.48
2023-04-19T15:00:22.430Z,8.05
2023-04-19T15:04:40.996Z,7.50
2023-04-19T15:08:57.660Z,9.57
2023-04-19T15:13:13.976Z,8.15
2023-04-19T15:17:30.322Z,7.57
2023-04-19T15:21:46.785Z,12.68
2023-04-19T15:26:03.001Z,13.43
2023-04-19T15:30:19.308Z,16.42
2023-04-19T15:34:35.699Z,12.35
2023-04-19T15:38:52.128Z,10.02
2023-04-19T15:43:08.508Z,16.33
2023-04-19T15:47:24.870Z,11.82
2023-04-19T15:51:41.592Z,15.10
2023-04-19T15:55:58.458Z,11.75
2023-04-19T16:00:15.366Z,14.02
2023-04-19T16:04:32.258Z,10.00
2023-04-19T16:08:48.589Z,13.48
2023-04-19T16:13:06.107Z,8.82
2023-04-19T16:17:22.415Z,10.30
2023-04-19T16:21:38.770Z,10.32
2023-04-19T16:25:56.690Z,7.53
2023-04-19T16:30:14.598Z,7.72
2023-04-19T16:34:30.819Z,10.27
2023-04-19T16:38:47.062Z,6.90
2023-04-19T16:43:05.041Z,9.23
2023-04-19T16:47:22.118Z,11.00
2023-04-19T16:51:38.538Z,11.35
2023-04-19T16:55:56.508Z,15.32
2023-04-19T17:00:13.529Z,10.57
2023-04-19T17:04:30.061Z,11.77
2023-04-19T17:08:46.458Z,11.55
2023-04-19T17:13:02.767Z,9.23
2023-04-19T17:17:20.224Z,10.45
2023-04-19T17:21:36.987Z,8.93
2023-04-19T17:25:53.214Z,10.18
2023-04-19T17:30:09.878Z,9.85
2023-04-19T17:34:26.067Z,9.68
2023-04-19T17:38:42.239Z,10.32
2023-04-19T17:42:58.627Z,11.70
2023-04-19T17:47:14.891Z,11.95
2023-04-19T17:51:31.424Z,12.98
2023-04-19T17:55:48.218Z,11.43
2023-04-19T18:00:07.854Z,10.48
2023-04-19T18:04:24.483Z,13.15
2023-04-19T18:08:40.770Z,11.15
2023-04-19T18:12:56.938Z,13.38
2023-04-19T18:17:13.153Z,11.02
2023-04-19T18:21:29.415Z,12.37
2023-04-19T18:25:52.410Z,12.43
2023-04-19T18:30:09.190Z,11.45
2023-04-19T18:34:25.432Z,12.13
2023-04-19T18:38:41.950Z,11.55
2023-04-19T18:42:58.262Z,14.40
2023-04-19T18:47:14.448Z,15.63
2023-04-19T18:51:30.978Z,15.50
2023-04-19T18:55:48.730Z,15.57
2023-04-19T19:00:11.326Z,16.15
2023-04-19T19:04:46.711Z,16.23
2023-04-19T19:09:04.165Z,15.88
2023-04-19T19:13:20.517Z,16.67
2023-04-19T19:17:36.788Z,16.75
2023-04-19T19:21:53.172Z,16.75
2023-04-19T19:26:11.530Z,18.65
2023-04-19T19:30:29.775Z,16.08
2023-04-19T19:39:05.780Z,15.00
2023-04-19T19:43:22.067Z,15.00
2023-04-19T19:47:44.486Z,13.82
2023-04-19T19:56:22.901Z,15.48
2023-04-19T20:00:46.965Z,15.07
2023-04-19T20:05:06.842Z,14.93
2023-04-19T20:09:24.740Z,15.50
2023-04-19T20:13:40.953Z,13.80
2023-04-19T20:17:57.489Z,18.45
2023-04-19T20:22:13.837Z,14.60
2023-04-19T20:26:30.136Z,14.87
2023-04-19T20:30:46.384Z,16.05
2023-04-19T20:35:08.647Z,16.20
2023-04-19T20:39:25.540Z,14.35
2023-04-19T20:43:41.763Z,14.80
2023-04-19T20:47:58.779Z,12.48
2023-04-19T20:52:15.264Z,13.40
2023-04-19T20:56:31.472Z,14.63
2023-04-19T21:00:50.097Z,13.45
2023-04-19T21:05:06.734Z,15.20
2023-04-19T21:09:23.067Z,13.68
2023-04-19T21:13:39.236Z,16.55
2023-04-19T21:17:55.473Z,16.40
2023-04-19T21:22:11.885Z,15.55
2023-04-19T21:26:28.189Z,13.40
2023-04-19T21:30:44.401Z,13.57
2023-04-19T21:35:01.617Z,12.30
2023-04-19T21:39:17.990Z,12.68
2023-04-19T21:43:34.542Z,14.35
2023-04-19T21:47:51.224Z,12.85
2023-04-19T21:52:08.224Z,14.38
2023-04-19T21:56:24.423Z,13.02
2023-04-19T22:00:40.965Z,15.27
2023-04-19T22:05:00.441Z,12.23
2023-04-19T22:09:17.069Z,14.95
2023-04-19T22:13:33.710Z,15.48
2023-04-19T22:17:50.559Z,13.40
2023-04-19T22:22:06.875Z,15.15
2023-04-19T22:26:23.211Z,16.83
2023-04-19T22:30:39.457Z,14.38
2023-04-19T22:34:56.056Z,14.63
2023-04-19T22:39:12.533Z,15.93
2023-04-19T22:43:28.763Z,15.98
2023-04-19T22:47:45.484Z,16.33
2023-04-19T22:52:02.062Z,14.55
2023-04-19T22:56:18.343Z,14.63
2023-04-19T23:00:38.006Z,15.38
2023-04-19T23:04:54.681Z,18.52
2023-04-19T23:09:13.896Z,15.43
2023-04-19T23:13:30.262Z,13.93
2023-04-19T23:17:46.696Z,15.55
2023-04-19T23:22:03.025Z,16.62
2023-04-19T23:26:19.302Z,15.02
2023-04-19T23:30:35.650Z,15.95
2023-04-19T23:34:51.981Z,16.87
2023-04-19T23:39:08.213Z,14.45
2023-04-19T23:43:24.523Z,14.48
2023-04-19T23:47:40.765Z,18.05
2023-04-19T23:51:57.140Z,14.00
2023-04-19T23:56:13.456Z,16.23
